sensor_id;sensor_type;location;lat;lon;timestamp;P1;durP1;ratioP1;P2;durP2;ratioP2
7160;SDS011;3622;53.576;9.978;2023-12-22T00:01:28;5.90;;;2.20;;
7160;SDS011;3622;53.576;9.978;2023-12-22T00:03:54;18.90;;;3.90;;
7160;SDS011;3622;53.576;9.978;2023-12-22T00:06:20;21.80;;;3.13;;
7160;SDS011;3622;53.576;9.978;2023-12-22T00:08:46;9.37;;;2.77;;
7160;SDS011;3622;53.576;9.978;2023-12-22T00:11:12;19.20;;;3.10;;
7160;SDS011;3622;53.576;9.978;2023-12-22T00:13:38;22.17;;;3.50;;
7160;SDS011;3622;53.576;9.978;2023-12-22T00:16:04;14.33;;;3.53;;
7160;SDS011;3622;53.576;9.978;2023-12-22T00:18:30;11.50;;;2.87;;
7160;SDS011;3622;53.576;9.978;2023-12-22T00:20:56;14.40;;;3.23;;
7160;SDS011;3622;53.576;9.978;2023-12-22T00:23:22;9.97;;;2.73;;
7160;SDS011;3622;53.576;9.978;2023-12-22T00:25:48;19.33;;;2.90;;
7160;SDS011;3622;53.576;9.978;2023-12-22T00:28:14;12.60;;;3.43;;
7160;SDS011;3622;53.576;9.978;2023-12-22T00:30:40;12.67;;;3.50;;
7160;SDS011;3622;53.576;9.978;2023-12-22T00:33:06;25.10;;;3.07;;
7160;SDS011;3622;53.576;9.978;2023-12-22T00:35:32;4.70;;;1.73;;
7160;SDS011;3622;53.576;9.978;2023-12-22T00:38:00;11.80;;;2.40;;
7160;SDS011;3622;53.576;9.978;2023-12-22T00:40:26;13.80;;;2.53;;
7160;SDS011;3622;53.576;9.978;2023-12-22T00:42:52;14.13;;;3.10;;
7160;SDS011;3622;53.576;9.978;2023-12-22T00:45:18;14.20;;;3.00;;
7160;SDS011;3622;53.576;9.978;2023-12-22T00:47:44;15.20;;;3.10;;
7160;SDS011;3622;53.576;9.978;2023-12-22T00:50:10;15.00;;;3.47;;
7160;SDS011;3622;53.576;9.978;2023-12-22T00:52:36;17.80;;;3.57;;
7160;SDS011;3622;53.576;9.978;2023-12-22T00:55:02;14.70;;;2.87;;
7160;SDS011;3622;53.576;9.978;2023-12-22T00:57:28;13.70;;;2.37;;
7160;SDS011;3622;53.576;9.978;2023-12-22T00:59:55;11.50;;;2.30;;
7160;SDS011;3622;53.576;9.978;2023-12-22T01:02:21;18.03;;;3.27;;
7160;SDS011;3622;53.576;9.978;2023-12-22T01:04:47;15.30;;;2.80;;
7160;SDS011;3622;53.576;9.978;2023-12-22T01:07:13;11.47;;;2.53;;
7160;SDS011;3622;53.576;9.978;2023-12-22T01:09:39;10.43;;;1.90;;
7160;SDS011;3622;53.576;9.978;2023-12-22T01:12:05;19.90;;;2.23;;
7160;SDS011;3622;53.576;9.978;2023-12-22T01:14:32;8.30;;;1.70;;
7160;SDS011;3622;53.576;9.978;2023-12-22T01:16:58;19.40;;;3.23;;
7160;SDS011;3622;53.576;9.978;2023-12-22T01:19:25;6.53;;;1.60;;
7160;SDS011;3622;53.576;9.978;2023-12-22T01:21:51;11.27;;;1.97;;
7160;SDS011;3622;53.576;9.978;2023-12-22T01:24:17;15.30;;;2.23;;
7160;SDS011;3622;53.576;9.978;2023-12-22T01:26:43;5.37;;;1.33;;
7160;SDS011;3622;53.576;9.978;2023-12-22T01:29:09;3.13;;;1.13;;
7160;SDS011;3622;53.576;9.978;2023-12-22T01:31:35;7.93;;;1.30;;
7160;SDS011;3622;53.576;9.978;2023-12-22T01:34:01;4.40;;;1.23;;
7160;SDS011;3622;53.576;9.978;2023-12-22T01:36:27;3.50;;;0.93;;
7160;SDS011;3622;53.576;9.978;2023-12-22T01:38:53;2.93;;;0.87;;
7160;SDS011;3622;53.576;9.978;2023-12-22T01:41:19;3.50;;;0.80;;
7160;SDS011;3622;53.576;9.978;2023-12-22T01:43:45;1.47;;;0.60;;
7160;SDS011;3622;53.576;9.978;2023-12-22T01:46:11;2.10;;;0.60;;
7160;SDS011;3622;53.576;9.978;2023-12-22T01:48:37;2.53;;;0.80;;
7160;SDS011;3622;53.576;9.978;2023-12-22T01:51:04;3.97;;;0.70;;
7160;SDS011;3622;53.576;9.978;2023-12-22T01:53:31;3.83;;;0.80;;
7160;SDS011;3622;53.576;9.978;2023-12-22T01:55:57;2.00;;;0.60;;
7160;SDS011;3622;53.576;9.978;2023-12-22T01:58:26;1.53;;;0.40;;
7160;SDS011;3622;53.576;9.978;2023-12-22T02:00:52;1.27;;;0.60;;
7160;SDS011;3622;53.576;9.978;2023-12-22T02:03:18;1.73;;;0.43;;
7160;SDS011;3622;53.576;9.978;2023-12-22T02:05:44;2.60;;;0.60;;
7160;SDS011;3622;53.576;9.978;2023-12-22T02:08:11;4.30;;;0.60;;
7160;SDS011;3622;53.576;9.978;2023-12-22T02:10:37;2.43;;;0.60;;
7160;SDS011;3622;53.576;9.978;2023-12-22T02:13:07;5.97;;;1.13;;
7160;SDS011;3622;53.576;9.978;2023-12-22T02:15:34;3.97;;;1.03;;
7160;SDS011;3622;53.576;9.978;2023-12-22T02:20:29;3.70;;;1.10;;
7160;SDS011;3622;53.576;9.978;2023-12-22T02:22:55;4.90;;;0.80;;
7160;SDS011;3622;53.576;9.978;2023-12-22T02:25:21;4.20;;;1.47;;
7160;SDS011;3622;53.576;9.978;2023-12-22T02:27:48;5.63;;;0.73;;
7160;SDS011;3622;53.576;9.978;2023-12-22T02:30:24;8.53;;;1.30;;
7160;SDS011;3622;53.576;9.978;2023-12-22T02:32:51;13.67;;;1.97;;
7160;SDS011;3622;53.576;9.978;2023-12-22T02:35:19;3.83;;;0.80;;
7160;SDS011;3622;53.576;9.978;2023-12-22T02:37:46;4.23;;;0.93;;
7160;SDS011;3622;53.576;9.978;2023-12-22T02:40:13;12.40;;;2.10;;
7160;SDS011;3622;53.576;9.978;2023-12-22T02:42:39;8.60;;;1.60;;
7160;SDS011;3622;53.576;9.978;2023-12-22T02:45:06;6.83;;;1.20;;
7160;SDS011;3622;53.576;9.978;2023-12-22T02:47:32;6.87;;;1.57;;
7160;SDS011;3622;53.576;9.978;2023-12-22T02:49:58;2.80;;;0.87;;
7160;SDS011;3622;53.576;9.978;2023-12-22T02:52:24;9.00;;;1.20;;
7160;SDS011;3622;53.576;9.978;2023-12-22T02:54:50;5.73;;;1.10;;
7160;SDS011;3622;53.576;9.978;2023-12-22T02:57:16;5.57;;;1.03;;
7160;SDS011;3622;53.576;9.978;2023-12-22T02:59:42;1.10;;;0.80;;
7160;SDS011;3622;53.576;9.978;2023-12-22T03:02:08;4.40;;;0.80;;
7160;SDS011;3622;53.576;9.978;2023-12-22T03:04:34;5.27;;;0.90;;
7160;SDS011;3622;53.576;9.978;2023-12-22T03:07:00;0.67;;;0.30;;
7160;SDS011;3622;53.576;9.978;2023-12-22T03:09:26;3.30;;;0.53;;
7160;SDS011;3622;53.576;9.978;2023-12-22T03:11:52;0.80;;;0.63;;
7160;SDS011;3622;53.576;9.978;2023-12-22T03:14:19;5.23;;;0.73;;
7160;SDS011;3622;53.576;9.978;2023-12-22T03:16:45;0.70;;;0.50;;
7160;SDS011;3622;53.576;9.978;2023-12-22T03:19:11;0.63;;;0.30;;
7160;SDS011;3622;53.576;9.978;2023-12-22T03:21:37;1.67;;;0.40;;
7160;SDS011;3622;53.576;9.978;2023-12-22T03:24:03;0.60;;;0.30;;
7160;SDS011;3622;53.576;9.978;2023-12-22T03:26:29;1.67;;;0.40;;
7160;SDS011;3622;53.576;9.978;2023-12-22T03:28:55;2.43;;;0.40;;
7160;SDS011;3622;53.576;9.978;2023-12-22T03:31:21;1.10;;;0.40;;
7160;SDS011;3622;53.576;9.978;2023-12-22T03:33:47;1.70;;;0.53;;
7160;SDS011;3622;53.576;9.978;2023-12-22T03:36:13;1.33;;;0.40;;
7160;SDS011;3622;53.576;9.978;2023-12-22T03:38:39;1.00;;;0.40;;
7160;SDS011;3622;53.576;9.978;2023-12-22T03:41:05;2.33;;;0.50;;
7160;SDS011;3622;53.576;9.978;2023-12-22T03:43:31;0.70;;;0.47;;
7160;SDS011;3622;53.576;9.978;2023-12-22T03:45:57;1.73;;;0.60;;
7160;SDS011;3622;53.576;9.978;2023-12-22T03:48:23;3.37;;;0.70;;
7160;SDS011;3622;53.576;9.978;2023-12-22T03:50:49;3.23;;;0.57;;
7160;SDS011;3622;53.576;9.978;2023-12-22T03:53:15;2.17;;;0.53;;
7160;SDS011;3622;53.576;9.978;2023-12-22T03:55:41;1.10;;;0.70;;
7160;SDS011;3622;53.576;9.978;2023-12-22T03:58:07;3.77;;;0.60;;
7160;SDS011;3622;53.576;9.978;2023-12-22T04:00:33;6.73;;;1.07;;
7160;SDS011;3622;53.576;9.978;2023-12-22T04:03:00;4.77;;;1.30;;
7160;SDS011;3622;53.576;9.978;2023-12-22T04:05:26;1.23;;;0.60;;
7160;SDS011;3622;53.576;9.978;2023-12-22T04:07:52;6.03;;;0.70;;
7160;SDS011;3622;53.576;9.978;2023-12-22T04:10:18;4.63;;;1.03;;
7160;SDS011;3622;53.576;9.978;2023-12-22T04:12:44;6.93;;;1.23;;
7160;SDS011;3622;53.576;9.978;2023-12-22T04:15:10;4.43;;;0.83;;
7160;SDS011;3622;53.576;9.978;2023-12-22T04:17:36;4.90;;;0.90;;
7160;SDS011;3622;53.576;9.978;2023-12-22T04:20:02;5.40;;;0.90;;
7160;SDS011;3622;53.576;9.978;2023-12-22T04:22:28;5.97;;;0.80;;
7160;SDS011;3622;53.576;9.978;2023-12-22T04:24:54;5.83;;;1.30;;
7160;SDS011;3622;53.576;9.978;2023-12-22T04:27:20;12.40;;;1.37;;
7160;SDS011;3622;53.576;9.978;2023-12-22T04:29:46;5.50;;;1.20;;
7160;SDS011;3622;53.576;9.978;2023-12-22T04:32:12;5.63;;;1.47;;
7160;SDS011;3622;53.576;9.978;2023-12-22T04:34:38;12.53;;;2.57;;
7160;SDS011;3622;53.576;9.978;2023-12-22T04:37:05;10.80;;;1.37;;
7160;SDS011;3622;53.576;9.978;2023-12-22T04:39:30;7.27;;;1.70;;
7160;SDS011;3622;53.576;9.978;2023-12-22T04:41:56;8.17;;;1.63;;
7160;SDS011;3622;53.576;9.978;2023-12-22T04:44:22;6.00;;;1.17;;
7160;SDS011;3622;53.576;9.978;2023-12-22T04:46:49;11.50;;;1.00;;
7160;SDS011;3622;53.576;9.978;2023-12-22T04:49:15;6.50;;;1.60;;
7160;SDS011;3622;53.576;9.978;2023-12-22T04:51:40;3.67;;;0.77;;
7160;SDS011;3622;53.576;9.978;2023-12-22T04:54:06;5.63;;;1.00;;
7160;SDS011;3622;53.576;9.978;2023-12-22T04:56:32;3.33;;;0.83;;
7160;SDS011;3622;53.576;9.978;2023-12-22T04:58:58;4.80;;;1.30;;
7160;SDS011;3622;53.576;9.978;2023-12-22T05:01:25;14.27;;;1.17;;
7160;SDS011;3622;53.576;9.978;2023-12-22T05:03:51;2.80;;;0.93;;
7160;SDS011;3622;53.576;9.978;2023-12-22T05:06:18;2.00;;;0.90;;
7160;SDS011;3622;53.576;9.978;2023-12-22T05:08:44;3.53;;;0.97;;
7160;SDS011;3622;53.576;9.978;2023-12-22T05:11:11;4.20;;;0.80;;
7160;SDS011;3622;53.576;9.978;2023-12-22T05:13:37;11.47;;;0.90;;
7160;SDS011;3622;53.576;9.978;2023-12-22T05:16:05;7.67;;;0.93;;
7160;SDS011;3622;53.576;9.978;2023-12-22T05:18:31;1.00;;;0.60;;
7160;SDS011;3622;53.576;9.978;2023-12-22T05:20:57;4.07;;;1.17;;
7160;SDS011;3622;53.576;9.978;2023-12-22T05:23:23;1.47;;;1.10;;
7160;SDS011;3622;53.576;9.978;2023-12-22T05:25:49;4.63;;;0.80;;
7160;SDS011;3622;53.576;9.978;2023-12-22T05:28:15;2.93;;;0.60;;
7160;SDS011;3622;53.576;9.978;2023-12-22T05:30:41;5.63;;;0.60;;
7160;SDS011;3622;53.576;9.978;2023-12-22T05:33:07;1.77;;;0.57;;
7160;SDS011;3622;53.576;9.978;2023-12-22T05:35:33;9.73;;;1.17;;
7160;SDS011;3622;53.576;9.978;2023-12-22T05:37:59;7.63;;;0.90;;
7160;SDS011;3622;53.576;9.978;2023-12-22T05:40:25;4.20;;;1.03;;
7160;SDS011;3622;53.576;9.978;2023-12-22T05:42:51;5.43;;;1.57;;
7160;SDS011;3622;53.576;9.978;2023-12-22T05:45:17;2.77;;;0.70;;
7160;SDS011;3622;53.576;9.978;2023-12-22T05:47:43;3.53;;;0.80;;
7160;SDS011;3622;53.576;9.978;2023-12-22T05:50:09;2.10;;;0.80;;
7160;SDS011;3622;53.576;9.978;2023-12-22T05:52:36;7.23;;;1.20;;
7160;SDS011;3622;53.576;9.978;2023-12-22T05:55:02;4.07;;;1.07;;
7160;SDS011;3622;53.576;9.978;2023-12-22T05:57:28;2.47;;;0.80;;
7160;SDS011;3622;53.576;9.978;2023-12-22T05:59:53;4.93;;;0.70;;
7160;SDS011;3622;53.576;9.978;2023-12-22T06:02:19;3.30;;;0.97;;
7160;SDS011;3622;53.576;9.978;2023-12-22T06:04:46;5.63;;;1.07;;
7160;SDS011;3622;53.576;9.978;2023-12-22T06:07:12;2.43;;;0.73;;
7160;SDS011;3622;53.576;9.978;2023-12-22T06:09:38;5.00;;;0.97;;
7160;SDS011;3622;53.576;9.978;2023-12-22T06:12:04;1.93;;;0.90;;
7160;SDS011;3622;53.576;9.978;2023-12-22T06:14:30;5.53;;;0.70;;
7160;SDS011;3622;53.576;9.978;2023-12-22T06:16:57;8.83;;;0.97;;
7160;SDS011;3622;53.576;9.978;2023-12-22T06:19:23;2.40;;;0.77;;
7160;SDS011;3622;53.576;9.978;2023-12-22T06:21:53;6.40;;;1.03;;
7160;SDS011;3622;53.576;9.978;2023-12-22T06:24:19;7.77;;;0.80;;
7160;SDS011;3622;53.576;9.978;2023-12-22T06:26:45;6.40;;;0.90;;
7160;SDS011;3622;53.576;9.978;2023-12-22T06:29:11;5.60;;;1.57;;
7160;SDS011;3622;53.576;9.978;2023-12-22T06:31:37;1.33;;;0.60;;
7160;SDS011;3622;53.576;9.978;2023-12-22T06:34:03;3.00;;;0.90;;
7160;SDS011;3622;53.576;9.978;2023-12-22T06:36:30;4.07;;;1.20;;
7160;SDS011;3622;53.576;9.978;2023-12-22T06:38:55;4.73;;;1.37;;
7160;SDS011;3622;53.576;9.978;2023-12-22T06:43:49;8.03;;;1.83;;
7160;SDS011;3622;53.576;9.978;2023-12-22T06:46:16;7.17;;;1.87;;
7160;SDS011;3622;53.576;9.978;2023-12-22T06:48:42;19.57;;;1.60;;
7160;SDS011;3622;53.576;9.978;2023-12-22T06:51:16;7.43;;;1.43;;
7160;SDS011;3622;53.576;9.978;2023-12-22T06:53:42;24.33;;;2.07;;
7160;SDS011;3622;53.576;9.978;2023-12-22T06:56:17;3.60;;;1.30;;
7160;SDS011;3622;53.576;9.978;2023-12-22T06:58:44;13.67;;;1.87;;
7160;SDS011;3622;53.576;9.978;2023-12-22T07:01:12;19.10;;;2.37;;
7160;SDS011;3622;53.576;9.978;2023-12-22T07:03:38;14.93;;;2.10;;
7160;SDS011;3622;53.576;9.978;2023-12-22T07:06:04;26.03;;;2.23;;
7160;SDS011;3622;53.576;9.978;2023-12-22T07:08:30;12.00;;;2.60;;
7160;SDS011;3622;53.576;9.978;2023-12-22T07:10:56;10.90;;;2.00;;
7160;SDS011;3622;53.576;9.978;2023-12-22T07:13:22;11.53;;;2.10;;
7160;SDS011;3622;53.576;9.978;2023-12-22T07:15:47;8.03;;;1.57;;
7160;SDS011;3622;53.576;9.978;2023-12-22T07:18:13;10.60;;;2.23;;
7160;SDS011;3622;53.576;9.978;2023-12-22T07:20:39;14.40;;;1.60;;
7160;SDS011;3622;53.576;9.978;2023-12-22T07:23:05;6.10;;;1.93;;
7160;SDS011;3622;53.576;9.978;2023-12-22T07:25:35;13.33;;;1.90;;
7160;SDS011;3622;53.576;9.978;2023-12-22T07:28:01;7.63;;;1.70;;
7160;SDS011;3622;53.576;9.978;2023-12-22T07:30:27;9.47;;;2.07;;
7160;SDS011;3622;53.576;9.978;2023-12-22T07:32:53;8.63;;;2.27;;
7160;SDS011;3622;53.576;9.978;2023-12-22T07:35:19;20.03;;;3.23;;
7160;SDS011;3622;53.576;9.978;2023-12-22T07:37:45;18.90;;;2.20;;
7160;SDS011;3622;53.576;9.978;2023-12-22T07:40:11;8.23;;;1.57;;
7160;SDS011;3622;53.576;9.978;2023-12-22T07:42:37;6.10;;;1.50;;
7160;SDS011;3622;53.576;9.978;2023-12-22T07:45:03;5.53;;;1.10;;
7160;SDS011;3622;53.576;9.978;2023-12-22T07:47:30;10.10;;;1.73;;
7160;SDS011;3622;53.576;9.978;2023-12-22T07:49:56;12.13;;;1.50;;
7160;SDS011;3622;53.576;9.978;2023-12-22T07:52:22;6.07;;;1.70;;
7160;SDS011;3622;53.576;9.978;2023-12-22T07:54:47;7.20;;;1.63;;
7160;SDS011;3622;53.576;9.978;2023-12-22T07:57:14;6.13;;;1.30;;
7160;SDS011;3622;53.576;9.978;2023-12-22T07:59:40;9.73;;;1.37;;
7160;SDS011;3622;53.576;9.978;2023-12-22T08:02:05;22.70;;;1.73;;
7160;SDS011;3622;53.576;9.978;2023-12-22T08:04:31;6.90;;;0.80;;
7160;SDS011;3622;53.576;9.978;2023-12-22T08:06:57;8.00;;;1.03;;
7160;SDS011;3622;53.576;9.978;2023-12-22T08:09:23;4.30;;;0.90;;
7160;SDS011;3622;53.576;9.978;2023-12-22T08:11:49;6.53;;;1.27;;
7160;SDS011;3622;53.576;9.978;2023-12-22T08:14:18;9.10;;;1.23;;
7160;SDS011;3622;53.576;9.978;2023-12-22T08:16:44;8.97;;;1.30;;
7160;SDS011;3622;53.576;9.978;2023-12-22T08:19:10;8.03;;;1.40;;
7160;SDS011;3622;53.576;9.978;2023-12-22T08:21:36;2.70;;;1.27;;
7160;SDS011;3622;53.576;9.978;2023-12-22T08:24:02;4.30;;;1.67;;
7160;SDS011;3622;53.576;9.978;2023-12-22T08:26:27;4.87;;;1.90;;
7160;SDS011;3622;53.576;9.978;2023-12-22T08:28:53;12.83;;;3.70;;
7160;SDS011;3622;53.576;9.978;2023-12-22T08:31:20;5.47;;;2.03;;
7160;SDS011;3622;53.576;9.978;2023-12-22T08:33:46;7.93;;;3.53;;
7160;SDS011;3622;53.576;9.978;2023-12-22T08:36:12;10.50;;;3.07;;
7160;SDS011;3622;53.576;9.978;2023-12-22T08:38:38;8.83;;;1.40;;
7160;SDS011;3622;53.576;9.978;2023-12-22T08:41:06;9.43;;;2.43;;
7160;SDS011;3622;53.576;9.978;2023-12-22T08:43:33;9.63;;;2.77;;
7160;SDS011;3622;53.576;9.978;2023-12-22T08:45:59;5.33;;;1.47;;
7160;SDS011;3622;53.576;9.978;2023-12-22T08:48:25;12.90;;;1.63;;
7160;SDS011;3622;53.576;9.978;2023-12-22T08:50:51;3.50;;;1.17;;
7160;SDS011;3622;53.576;9.978;2023-12-22T08:53:17;6.33;;;1.33;;
7160;SDS011;3622;53.576;9.978;2023-12-22T08:55:43;5.40;;;1.23;;
7160;SDS011;3622;53.576;9.978;2023-12-22T08:58:09;1.97;;;0.70;;
7160;SDS011;3622;53.576;9.978;2023-12-22T09:00:35;3.00;;;0.70;;
7160;SDS011;3622;53.576;9.978;2023-12-22T09:03:01;0.87;;;0.67;;
7160;SDS011;3622;53.576;9.978;2023-12-22T09:05:27;3.67;;;0.93;;
7160;SDS011;3622;53.576;9.978;2023-12-22T09:07:53;3.53;;;1.37;;
7160;SDS011;3622;53.576;9.978;2023-12-22T09:10:19;2.60;;;0.70;;
7160;SDS011;3622;53.576;9.978;2023-12-22T09:12:45;7.93;;;0.93;;
7160;SDS011;3622;53.576;9.978;2023-12-22T09:15:11;3.13;;;0.70;;
7160;SDS011;3622;53.576;9.978;2023-12-22T09:17:38;5.07;;;0.90;;
7160;SDS011;3622;53.576;9.978;2023-12-22T09:20:04;4.13;;;0.67;;
7160;SDS011;3622;53.576;9.978;2023-12-22T09:22:30;3.60;;;1.20;;
7160;SDS011;3622;53.576;9.978;2023-12-22T09:24:56;2.70;;;0.90;;
7160;SDS011;3622;53.576;9.978;2023-12-22T09:27:22;2.60;;;1.03;;
7160;SDS011;3622;53.576;9.978;2023-12-22T09:29:48;7.90;;;1.00;;
7160;SDS011;3622;53.576;9.978;2023-12-22T09:32:14;4.40;;;0.90;;
7160;SDS011;3622;53.576;9.978;2023-12-22T09:34:40;4.50;;;1.13;;
7160;SDS011;3622;53.576;9.978;2023-12-22T09:37:06;5.60;;;0.67;;
7160;SDS011;3622;53.576;9.978;2023-12-22T09:39:32;8.03;;;1.40;;
7160;SDS011;3622;53.576;9.978;2023-12-22T09:41:58;10.20;;;1.50;;
7160;SDS011;3622;53.576;9.978;2023-12-22T09:44:24;10.83;;;1.00;;
7160;SDS011;3622;53.576;9.978;2023-12-22T09:46:50;4.50;;;1.50;;
7160;SDS011;3622;53.576;9.978;2023-12-22T09:49:17;9.23;;;1.30;;
7160;SDS011;3622;53.576;9.978;2023-12-22T09:51:44;7.63;;;1.50;;
7160;SDS011;3622;53.576;9.978;2023-12-22T09:54:10;3.00;;;1.83;;
7160;SDS011;3622;53.576;9.978;2023-12-22T09:56:37;5.73;;;1.90;;
7160;SDS011;3622;53.576;9.978;2023-12-22T09:59:08;3.83;;;1.10;;
7160;SDS011;3622;53.576;9.978;2023-12-22T10:01:35;9.23;;;3.30;;
7160;SDS011;3622;53.576;9.978;2023-12-22T10:04:02;8.43;;;1.97;;
7160;SDS011;3622;53.576;9.978;2023-12-22T10:06:28;8.83;;;1.57;;
7160;SDS011;3622;53.576;9.978;2023-12-22T10:08:54;8.57;;;2.30;;
7160;SDS011;3622;53.576;9.978;2023-12-22T10:11:20;6.20;;;1.57;;
7160;SDS011;3622;53.576;9.978;2023-12-22T10:13:46;4.60;;;1.50;;
7160;SDS011;3622;53.576;9.978;2023-12-22T10:16:14;7.63;;;1.63;;
7160;SDS011;3622;53.576;9.978;2023-12-22T10:18:40;5.43;;;1.70;;
7160;SDS011;3622;53.576;9.978;2023-12-22T10:21:06;14.73;;;2.20;;
7160;SDS011;3622;53.576;9.978;2023-12-22T10:23:32;6.90;;;1.37;;
7160;SDS011;3622;53.576;9.978;2023-12-22T10:25:58;9.40;;;1.60;;
7160;SDS011;3622;53.576;9.978;2023-12-22T10:28:26;9.87;;;2.80;;
7160;SDS011;3622;53.576;9.978;2023-12-22T10:30:53;13.67;;;2.40;;
7160;SDS011;3622;53.576;9.978;2023-12-22T10:33:21;11.33;;;1.43;;
7160;SDS011;3622;53.576;9.978;2023-12-22T10:35:47;10.77;;;1.97;;
7160;SDS011;3622;53.576;9.978;2023-12-22T10:38:17;10.67;;;1.73;;
7160;SDS011;3622;53.576;9.978;2023-12-22T10:40:43;12.07;;;1.50;;
7160;SDS011;3622;53.576;9.978;2023-12-22T10:43:11;16.73;;;2.13;;
7160;SDS011;3622;53.576;9.978;2023-12-22T10:45:37;1.93;;;0.57;;
7160;SDS011;3622;53.576;9.978;2023-12-22T10:48:03;4.43;;;1.20;;
7160;SDS011;3622;53.576;9.978;2023-12-22T10:50:29;5.90;;;1.27;;
7160;SDS011;3622;53.576;9.978;2023-12-22T10:52:55;3.63;;;1.50;;
7160;SDS011;3622;53.576;9.978;2023-12-22T10:55:21;5.90;;;1.23;;
7160;SDS011;3622;53.576;9.978;2023-12-22T10:57:47;6.37;;;1.20;;
7160;SDS011;3622;53.576;9.978;2023-12-22T11:00:14;6.03;;;1.57;;
7160;SDS011;3622;53.576;9.978;2023-12-22T11:02:41;4.97;;;1.33;;
7160;SDS011;3622;53.576;9.978;2023-12-22T11:05:08;4.53;;;1.17;;
7160;SDS011;3622;53.576;9.978;2023-12-22T11:07:35;7.50;;;1.33;;
7160;SDS011;3622;53.576;9.978;2023-12-22T11:10:03;7.67;;;1.80;;
7160;SDS011;3622;53.576;9.978;2023-12-22T11:12:37;10.53;;;1.30;;
7160;SDS011;3622;53.576;9.978;2023-12-22T11:15:03;7.57;;;1.20;;
7160;SDS011;3622;53.576;9.978;2023-12-22T11:17:34;6.43;;;1.40;;
7160;SDS011;3622;53.576;9.978;2023-12-22T11:20:00;7.47;;;1.67;;
7160;SDS011;3622;53.576;9.978;2023-12-22T11:22:27;15.27;;;2.23;;
7160;SDS011;3622;53.576;9.978;2023-12-22T11:24:54;6.50;;;1.47;;
7160;SDS011;3622;53.576;9.978;2023-12-22T11:27:21;11.87;;;1.50;;
7160;SDS011;3622;53.576;9.978;2023-12-22T11:29:49;9.13;;;1.20;;
7160;SDS011;3622;53.576;9.978;2023-12-22T11:32:15;11.83;;;1.60;;
7160;SDS011;3622;53.576;9.978;2023-12-22T11:34:42;10.73;;;1.50;;
7160;SDS011;3622;53.576;9.978;2023-12-22T11:37:10;3.73;;;1.20;;
7160;SDS011;3622;53.576;9.978;2023-12-22T11:39:37;7.43;;;1.60;;
7160;SDS011;3622;53.576;9.978;2023-12-22T11:42:04;10.00;;;1.50;;
7160;SDS011;3622;53.576;9.978;2023-12-22T11:44:30;3.83;;;1.13;;
7160;SDS011;3622;53.576;9.978;2023-12-22T11:47:03;4.50;;;2.50;;
7160;SDS011;3622;53.576;9.978;2023-12-22T11:49:35;8.40;;;0.97;;
7160;SDS011;3622;53.576;9.978;2023-12-22T11:52:16;7.57;;;2.27;;
7160;SDS011;3622;53.576;9.978;2023-12-22T11:54:52;5.33;;;1.10;;
7160;SDS011;3622;53.576;9.978;2023-12-22T11:57:28;4.83;;;1.33;;
7160;SDS011;3622;53.576;9.978;2023-12-22T11:59:58;9.53;;;1.40;;
7160;SDS011;3622;53.576;9.978;2023-12-22T12:02:26;5.73;;;1.20;;
7160;SDS011;3622;53.576;9.978;2023-12-22T12:04:52;13.67;;;1.43;;
7160;SDS011;3622;53.576;9.978;2023-12-22T12:10:09;10.93;;;1.40;;
7160;SDS011;3622;53.576;9.978;2023-12-22T12:12:35;9.23;;;1.90;;
7160;SDS011;3622;53.576;9.978;2023-12-22T12:15:08;7.50;;;1.57;;
7160;SDS011;3622;53.576;9.978;2023-12-22T12:17:38;6.10;;;1.40;;
7160;SDS011;3622;53.576;9.978;2023-12-22T12:20:07;8.57;;;1.37;;
7160;SDS011;3622;53.576;9.978;2023-12-22T12:22:34;7.20;;;1.23;;
7160;SDS011;3622;53.576;9.978;2023-12-22T12:25:02;4.53;;;1.37;;
7160;SDS011;3622;53.576;9.978;2023-12-22T12:27:29;10.10;;;1.83;;
7160;SDS011;3622;53.576;9.978;2023-12-22T12:29:55;6.17;;;1.10;;
7160;SDS011;3622;53.576;9.978;2023-12-22T12:32:23;10.27;;;2.10;;
7160;SDS011;3622;53.576;9.978;2023-12-22T12:34:49;21.83;;;2.53;;
7160;SDS011;3622;53.576;9.978;2023-12-22T12:37:17;20.70;;;3.60;;
7160;SDS011;3622;53.576;9.978;2023-12-22T12:39:44;13.40;;;2.10;;
7160;SDS011;3622;53.576;9.978;2023-12-22T12:42:12;13.63;;;2.50;;
7160;SDS011;3622;53.576;9.978;2023-12-22T12:44:40;13.17;;;4.83;;
7160;SDS011;3622;53.576;9.978;2023-12-22T12:47:14;12.73;;;3.70;;
7160;SDS011;3622;53.576;9.978;2023-12-22T12:49:40;9.17;;;2.13;;
7160;SDS011;3622;53.576;9.978;2023-12-22T12:52:11;24.00;;;4.70;;
7160;SDS011;3622;53.576;9.978;2023-12-22T12:54:37;14.37;;;2.00;;
7160;SDS011;3622;53.576;9.978;2023-12-22T12:57:03;14.20;;;2.70;;
7160;SDS011;3622;53.576;9.978;2023-12-22T12:59:29;10.20;;;2.03;;
7160;SDS011;3622;53.576;9.978;2023-12-22T13:01:55;8.83;;;2.50;;
7160;SDS011;3622;53.576;9.978;2023-12-22T13:04:22;11.33;;;1.90;;
7160;SDS011;3622;53.576;9.978;2023-12-22T13:06:49;8.07;;;2.07;;
7160;SDS011;3622;53.576;9.978;2023-12-22T13:09:15;7.20;;;2.13;;
7160;SDS011;3622;53.576;9.978;2023-12-22T13:11:42;12.60;;;2.20;;
7160;SDS011;3622;53.576;9.978;2023-12-22T13:14:09;11.30;;;2.80;;
7160;SDS011;3622;53.576;9.978;2023-12-22T13:16:35;7.50;;;2.00;;
7160;SDS011;3622;53.576;9.978;2023-12-22T13:19:01;5.70;;;1.87;;
7160;SDS011;3622;53.576;9.978;2023-12-22T13:21:27;7.20;;;2.20;;
7160;SDS011;3622;53.576;9.978;2023-12-22T13:24:14;9.17;;;2.00;;
7160;SDS011;3622;53.576;9.978;2023-12-22T13:26:40;4.67;;;2.13;;
7160;SDS011;3622;53.576;9.978;2023-12-22T13:29:07;14.70;;;2.00;;
7160;SDS011;3622;53.576;9.978;2023-12-22T13:31:33;12.90;;;2.37;;
7160;SDS011;3622;53.576;9.978;2023-12-22T13:34:02;13.23;;;1.73;;
7160;SDS011;3622;53.576;9.978;2023-12-22T13:36:33;4.90;;;1.17;;
7160;SDS011;3622;53.576;9.978;2023-12-22T13:39:01;10.90;;;1.53;;
7160;SDS011;3622;53.576;9.978;2023-12-22T13:41:29;4.07;;;1.37;;
7160;SDS011;3622;53.576;9.978;2023-12-22T13:43:55;9.53;;;1.30;;
7160;SDS011;3622;53.576;9.978;2023-12-22T13:46:25;4.37;;;1.20;;
7160;SDS011;3622;53.576;9.978;2023-12-22T13:48:53;12.27;;;1.33;;
7160;SDS011;3622;53.576;9.978;2023-12-22T13:51:19;8.83;;;1.80;;
7160;SDS011;3622;53.576;9.978;2023-12-22T13:53:48;11.30;;;2.33;;
7160;SDS011;3622;53.576;9.978;2023-12-22T13:56:15;8.50;;;1.47;;
7160;SDS011;3622;53.576;9.978;2023-12-22T13:58:44;6.37;;;1.50;;
7160;SDS011;3622;53.576;9.978;2023-12-22T14:01:14;10.20;;;1.53;;
7160;SDS011;3622;53.576;9.978;2023-12-22T14:03:40;15.23;;;1.50;;
7160;SDS011;3622;53.576;9.978;2023-12-22T14:06:06;17.33;;;2.00;;
7160;SDS011;3622;53.576;9.978;2023-12-22T14:08:34;10.90;;;1.40;;
7160;SDS011;3622;53.576;9.978;2023-12-22T14:11:01;8.93;;;1.60;;
7160;SDS011;3622;53.576;9.978;2023-12-22T14:13:27;5.53;;;1.70;;
7160;SDS011;3622;53.576;9.978;2023-12-22T14:15:53;6.30;;;1.73;;
7160;SDS011;3622;53.576;9.978;2023-12-22T14:18:19;7.17;;;1.10;;
7160;SDS011;3622;53.576;9.978;2023-12-22T14:20:44;8.57;;;1.47;;
7160;SDS011;3622;53.576;9.978;2023-12-22T14:23:11;8.13;;;1.30;;
7160;SDS011;3622;53.576;9.978;2023-12-22T14:25:41;10.83;;;1.30;;
7160;SDS011;3622;53.576;9.978;2023-12-22T14:28:07;3.30;;;0.93;;
7160;SDS011;3622;53.576;9.978;2023-12-22T14:30:33;2.30;;;0.70;;
7160;SDS011;3622;53.576;9.978;2023-12-22T14:32:59;4.53;;;1.10;;
7160;SDS011;3622;53.576;9.978;2023-12-22T14:35:25;3.60;;;0.80;;
7160;SDS011;3622;53.576;9.978;2023-12-22T14:37:51;8.23;;;1.33;;
7160;SDS011;3622;53.576;9.978;2023-12-22T14:40:17;3.20;;;1.40;;
7160;SDS011;3622;53.576;9.978;2023-12-22T14:42:44;1.63;;;0.80;;
7160;SDS011;3622;53.576;9.978;2023-12-22T14:45:10;6.13;;;0.90;;
7160;SDS011;3622;53.576;9.978;2023-12-22T14:47:36;5.93;;;1.30;;
7160;SDS011;3622;53.576;9.978;2023-12-22T14:50:02;3.40;;;1.23;;
7160;SDS011;3622;53.576;9.978;2023-12-22T14:52:32;3.53;;;0.80;;
7160;SDS011;3622;53.576;9.978;2023-12-22T14:54:58;5.70;;;1.73;;
7160;SDS011;3622;53.576;9.978;2023-12-22T14:57:24;3.37;;;1.57;;
7160;SDS011;3622;53.576;9.978;2023-12-22T14:59:52;7.07;;;1.30;;
7160;SDS011;3622;53.576;9.978;2023-12-22T15:02:18;14.77;;;4.47;;
7160;SDS011;3622;53.576;9.978;2023-12-22T15:04:44;11.67;;;2.10;;
7160;SDS011;3622;53.576;9.978;2023-12-22T15:07:14;10.00;;;2.37;;
7160;SDS011;3622;53.576;9.978;2023-12-22T15:09:40;9.73;;;1.70;;
7160;SDS011;3622;53.576;9.978;2023-12-22T15:12:06;6.87;;;2.07;;
7160;SDS011;3622;53.576;9.978;2023-12-22T15:14:32;8.50;;;1.97;;
7160;SDS011;3622;53.576;9.978;2023-12-22T15:16:58;4.50;;;2.40;;